Tiempo atmosférico en la estación meteorológica de Ronda Instituto, Málaga (760 m.)



Fecha
DESCASC
Temp. máxima en grados centígrados (hora)
DESCASC
Temp. mínima en grados centígrados (hora)
DESCASC
Temp. media en grados centígrados
DESCASC
Racha de viento máxima en m/sg (hora)
DESCASC
Velocidad máxima media en intervalos de 10 minutos(hora)
DESCASC
Precipitaciones diarias en mm
DESCASC
Precipitaciones de 00:00 a 06:00 en mm
DESCASC
Precipitaciones de 06:00 a 12:00 en mm
DESCASC
Precipitaciones de 12:00 a 18:00 en mm
DESCASC
Precipitaciones de 18:00 a 24:00 en mm
DESCASC
05-12-2019 14.1 (14:10) 3.8 (05:40) 9 6.94 (15:30) 2.5 (19:40) 0 0 0 0 0
04-12-2019 13.3 (15:20) 4.4 (23:59) 8.9 6.94 (14:30) 3.61 (13:40) 0 0 0 0 0
03-12-2019 12.7 (16:00) 7.1 (00:00) 9.9 4.72 (17:10) 2.5 (17:10) 0.8 0.8 0 0 0
02-12-2019 10 (14:00) 6.4 (00:00) 8.2 8.06 (21:00) 3.33 (20:40) 6.2 1 3 1.4 0.8
01-12-2019 13.6 (13:40) 7.9 (00:00) 10.8 9.17 (03:10) 4.17 (13:20) 5 0 0.2 1.6 3.2
30-11-2019 19.9 (13:50) 9.1 (00:00) 14.5 6.39 (14:10) 3.33 (17:20) 0 0 0 0 0
29-11-2019 18.5 (15:50) 7.2 (00:00) 12.8 4.17 (18:20) 2.78 (18:20) 0 0 0 0 0
28-11-2019 16.6 (14:50) 8 (00:00) 12.3 5 (14:50) 2.5 (14:40) 0 0 0 0 0
27-11-2019 -- (--) -- (--) -- -- (--) -- (--) -- -- -- 0 0
26-11-2019 -- (--) -- (--) -- -- (--) -- (--) -- -- -- -- --
25-11-2019 -- (--) -- (--) -- -- (--) -- (--) -- -- -- -- --
24-11-2019 -- (--) -- (--) -- -- (--) -- (--) -- -- -- -- --
23-11-2019 -- (--) -- (--) -- -- (--) -- (--) -- -- -- -- --
22-11-2019 -- (--) -- (--) -- -- (--) -- (--) -- -- -- -- --
21-11-2019 -- (--) -- (--) -- -- (--) -- (--) -- -- -- -- --
20-11-2019 -- (--) -- (--) -- -- (--) -- (--) -- -- -- -- --
19-11-2019 -- (--) -- (--) -- -- (--) -- (--) -- -- -- -- --
18-11-2019 -- (--) -- (--) -- -- (--) -- (--) -- -- -- -- --
17-11-2019 -- (--) -- (--) -- -- (--) -- (--) -- -- -- -- --
16-11-2019 -- (--) -- (--) -- -- (--) -- (--) -- -- -- -- --
15-11-2019 -- (--) -- (--) -- -- (--) -- (--) -- -- -- -- --
14-11-2019 -- (--) -- (--) -- -- (--) -- (--) -- -- -- -- --
13-11-2019 -- (--) -- (--) -- -- (--) -- (--) -- -- -- -- --
12-11-2019 -- (--) -- (--) -- -- (--) -- (--) -- -- -- -- 0
11-11-2019 -- (--) -- (--) -- -- (--) -- (--) -- 0 0.2 -- --
10-11-2019 -- (--) -- (--) -- -- (--) -- (--) -- -- 0 -- 0
09-11-2019 -- (--) -- (--) -- -- (--) -- (--) -- -- -- -- --
08-11-2019 -- (--) -- (--) -- -- (--) -- (--) -- -- -- 0 --

Gráficas

Temp. máximas Temp. mínimas Temp. medias Precipitaciones Rachas de viento máximas Velocidades máximas media en intervalos de 10 minutos

Datos horarios

Fecha y hora oficial Temperatura (ºC) Velocidad del viento (km/h) Dirección del viento Racha (km/h) Dirección de racha Precipitación (mm) Presión (hPa) Tendencia (hPa) Humedad (%)
2019-12-07 23:00:00 8.3 2 Este 6 Este 0 -- -- 87
2019-12-07 22:00:00 9.1 0 Calma -- -- 0 -- -- 85
2019-12-07 21:00:00 9.8 0 Calma 4 Este 0 -- -- 83
2019-12-07 20:00:00 10.7 0 Calma 5 Noroeste 0 -- -- 78
2019-12-07 19:00:00 12.1 2 Noroeste 10 Noroeste 0 -- -- 75
2019-12-07 18:00:00 13.2 6 Oeste 18 Oeste 0 -- -- 71
2019-12-07 17:00:00 14.9 5 Noroeste 26 Noroeste 0 -- -- 62
2019-12-07 16:00:00 16.8 6 Noroeste 14 Noroeste 0 -- -- 50
2019-12-07 15:00:00 16.6 5 Noroeste 13 Noroeste 0 -- -- 52
2019-12-07 14:00:00 15.9 4 Noroeste 10 Oeste 0 -- -- 55
2019-12-07 13:00:00 14.9 4 Sudeste 7 Sur 0 -- -- 56
2019-12-07 12:00:00 13.9 2 Sudoeste 6 Sudoeste 0 -- -- 59
2019-12-07 11:00:00 11.9 4 Noroeste 7 Noroeste 0 -- -- 67
2019-12-07 10:00:00 9.4 0 Calma 3 Sudeste 0 -- -- 75
2019-12-07 09:00:00 7.5 2 Este 8 Este 0 -- -- 81
2019-12-07 08:00:00 7.8 4 Este 7 Este 0 -- -- 83
2019-12-07 07:00:00 8.2 3 Norte 6 Norte 0 -- -- 82
2019-12-07 06:00:00 8.4 0 Calma 4 Este 0 -- -- 82
2019-12-07 05:00:00 8.3 0 Calma 4 Este 0 -- -- 83
2019-12-07 04:00:00 8.1 0 Calma 4 Sudeste 0 -- -- 82
2019-12-07 03:00:00 8.2 2 Nordeste 11 Sudeste 0 -- -- 82
2019-12-07 02:00:00 9.1 5 Sur 15 Sudoeste 0 -- -- 80
2019-12-07 01:00:00 9.5 4 Sur 14 Sudoeste 0 -- -- 75
2019-12-07 00:00:00 9.3 3 Sur 8 Sur 0 -- -- 75
2019-12-06 23:00:00 9.7 3 Sudeste 10 Sur 0 -- -- 74
2019-12-06 22:00:00 10 3 Este 12 Este 0 -- -- 73
2019-12-06 21:00:00 10.2 3 Sur 13 Sur 0 -- -- 74
2019-12-06 20:00:00 10.5 4 Sur 10 Sur 0 -- -- 71
2019-12-06 19:00:00 11.4 3 Sudeste 13 Este 0 -- -- 66
2019-12-06 18:00:00 13.1 3 Este 11 Este 0 -- -- 61
2019-12-06 17:00:00 14.1 0 Calma 14 Sur 0 -- -- 57
2019-12-06 16:00:00 15.2 6 Sur 16 Sudeste 0 -- -- 53
2019-12-06 15:00:00 16 6 Sur 19 Este 0 -- -- 53
2019-12-06 14:00:00 15.5 5 Este 15 Sur 0 -- -- 53
2019-12-06 13:00:00 15 6 Sur 19 Sur 0.2 -- -- 59
2019-12-06 12:00:00 14.4 5 Sudeste 11 Este 0 -- -- 60
2019-12-06 11:00:00 12.8 3 Nordeste 8 Nordeste 0 -- -- 65
2019-12-06 10:00:00 10.4 2 Norte 12 Sudeste 0 -- -- 72
2019-12-06 09:00:00 10 5 Sudeste 14 Sudeste 0 -- -- 74
2019-12-06 08:00:00 9.5 3 Este 15 Sudeste 0 -- -- 73
2019-12-06 07:00:00 10.4 6 Sur 24 Este 0 -- -- 70
2019-12-06 06:00:00 10.2 5 Sudeste 17 Sudeste 0 -- -- 70
2019-12-06 05:00:00 9.9 7 Sudeste 18 Sur 0 -- -- 71
2019-12-06 04:00:00 9 3 Norte 7 Norte 0 -- -- 75
2019-12-06 03:00:00 9.2 2 Norte 7 Norte 0 -- -- 74
2019-12-06 02:00:00 9.5 3 Nordeste 9 Este 0 -- -- 73
2019-12-06 01:00:00 9.1 0 Calma 12 Sudeste 0 -- -- 76
2019-12-06 00:00:00 9.8 2 Este 10 Este 0 -- -- 75
2019-12-05 23:00:00 10.1 0 Calma 10 Sudeste 0 -- -- 76
2019-12-05 22:00:00 10 2 Sudeste 12 Este 0 -- -- 74
2019-12-05 21:00:00 9.7 2 Sur 24 Este 0 -- -- 78
2019-12-05 20:00:00 9.8 6 Sudeste 24 Este 0 -- -- 78
2019-12-05 19:00:00 9.6 3 Este 12 Este 0 -- -- 75
2019-12-05 18:00:00 9.9 4 Este 19 Este 0 -- -- 71
2019-12-05 17:00:00 10.9 5 Este 20 Este 0 -- -- 69
2019-12-05 16:00:00 11.5 9 Sudeste 25 Este 0 -- -- 67
2019-12-05 15:00:00 12.7 6 Sur 13 Este 0 -- -- 59
2019-12-05 14:00:00 13.9 4 Sudoeste 12 Sur 0 -- -- 53
2019-12-05 13:00:00 12.8 4 Sudoeste 9 Sur 0 -- -- 56
2019-12-05 12:00:00 11.5 3 Sudoeste 6 Norte 0 -- -- 65
2019-12-05 11:00:00 9.3 2 Noroeste 6 Noroeste 0 -- -- 73
2019-12-05 10:00:00 6.4 4 Sur 6 Sur 0 -- -- 82
2019-12-05 09:00:00 4.7 4 Norte 10 Norte 0 -- -- 87
2019-12-05 08:00:00 4.8 3 Norte 9 Norte 0 -- -- 82
2019-12-05 07:00:00 4.6 0 Calma 6 Este 0 -- -- 84
2019-12-05 06:00:00 4.2 0 Calma 6 Nordeste 0 -- -- 83
2019-12-05 05:00:00 4 0 Calma 5 Este 0 -- -- 84
2019-12-05 04:00:00 4.5 0 Calma 5 Este 0 -- -- 82
2019-12-05 03:00:00 4.8 3 Este 5 Este 0 -- -- 85
2019-12-05 02:00:00 5.1 0 Calma 4 Nordeste 0 -- -- 83
2019-12-05 01:00:00 4.9 2 Sudeste 5 Este 0 -- -- 83
2019-12-05 00:00:00 4.4 2 Este 5 Sudeste 0 -- -- 87
2019-12-04 23:00:00 4.7 0 Calma 5 Este 0 -- -- 87
2019-12-04 22:00:00 5.4 0 Calma 4 Este 0 -- -- 85
2019-12-04 21:00:00 5.7 0 Calma 4 Este 0 -- -- 84
2019-12-04 20:00:00 6.6 0 Calma 8 Este 0 -- -- 81
2019-12-04 19:00:00 7.2 2 Norte 19 Oeste 0 -- -- 77
2019-12-04 18:00:00 8.7 9 Noroeste 18 Oeste 0 -- -- 77
2019-12-04 17:00:00 11.3 12 Noroeste 21 Noroeste 0 -- -- 65
2019-12-04 16:00:00 12.5 9 Noroeste 24 Oeste 0 -- -- 59
2019-12-04 15:00:00 12.9 9 Noroeste 25 Noroeste 0 -- -- 55
2019-12-04 14:00:00 12.5 6 Oeste 24 Noroeste 0 -- -- 58
2019-12-04 13:00:00 11.5 7 Noroeste 22 Oeste 0 -- -- 77
2019-12-04 12:00:00 10.4 9 Noroeste 16 Oeste 0 -- -- 81
2019-12-04 11:00:00 11 2 Oeste 8 Noroeste 0 -- -- 76
2019-12-04 10:00:00 8.7 0 Calma 3 Sudoeste 0 -- -- 87
2019-12-04 09:00:00 7.6 0 Calma 4 Este 0 -- -- 91
2019-12-04 08:00:00 7.3 0 Calma 5 Sudoeste 0 -- -- 94
2019-12-04 07:00:00 6.9 0 Calma 4 Sudeste 0 -- -- 93
2019-12-04 06:00:00 6.7 0 Calma 5 Este 0 -- -- 95
2019-12-04 05:00:00 6.5 0 Calma 2 Sudeste 0 -- -- 95
2019-12-04 04:00:00 6.9 0 Calma 2 Este 0 -- -- 94
2019-12-04 03:00:00 7.4 0 Calma 4 Este 0 -- -- 93
2019-12-04 02:00:00 8.3 0 Calma 2 Este 0 -- -- 91
2019-12-04 01:00:00 8.7 2 Sudeste 4 Sudeste 0 -- -- 91
2019-12-04 00:00:00 8.7 0 Calma 2 Norte 0 -- -- 91
2019-12-03 23:00:00 9 0 Calma 3 Sur 0 -- -- 89
2019-12-03 22:00:00 9.3 0 Calma 4 Este 0 -- -- 89
2019-12-03 21:00:00 9.6 2 Nordeste 4 Nordeste 0 -- -- 86
2019-12-03 20:00:00 9.9 2 Nordeste 4 Este 0 -- -- 85
2019-12-03 19:00:00 10.2 0 Calma 4 Norte 0 -- -- 82
2019-12-03 18:00:00 10.6 0 Calma 17 Nordeste 0 -- -- 82
2019-12-03 17:00:00 11.4 8 Norte 14 Nordeste 0 -- -- 79
2019-12-03 16:00:00 12.7 3 Noroeste 10 Noroeste 0 -- -- 73
2019-12-03 15:00:00 12.1 0 Calma 14 Oeste 0 -- -- 72
2019-12-03 14:00:00 11.6 4 Oeste 9 Oeste 0 -- -- 78
2019-12-03 13:00:00 11.7 3 Oeste 9 Oeste 0 -- -- 81
2019-12-03 12:00:00 9.4 0 Calma 4 Oeste 0 -- -- 85
2019-12-03 11:00:00 8.7 0 Calma 4 Noroeste 0 -- -- 91
2019-12-03 10:00:00 7.8 0 Calma 0 Calma 0 -- -- 95
2019-12-03 09:00:00 7.1 0 Calma 3 Norte 0 -- -- 94
2019-12-03 08:00:00 7.4 0 Calma 4 Este 0 -- -- 94
2019-12-03 07:00:00 7.7 0 Calma 3 Este 0 -- -- 94
2019-12-03 06:00:00 7.8 0 Calma 4 Nordeste 0 -- -- 93
2019-12-03 05:00:00 8 2 Nordeste 12 Norte 0 -- -- 93
2019-12-03 04:00:00 8.2 0 Calma 8 Norte 0 -- -- 93
2019-12-03 03:00:00 8.3 4 Norte 12 Norte 0 -- -- 94
2019-12-03 02:00:00 8.5 3 Norte 15 Sudeste 0 -- -- 93
2019-12-03 01:00:00 9 6 Este 16 Nordeste 0.8 -- -- 90
2019-12-03 00:00:00 9.1 3 Nordeste 21 Este 0.8 -- -- 90
2019-12-02 23:00:00 9.4 9 Este 20 Este 0 -- -- 85
2019-12-02 22:00:00 9.4 4 Este 20 Este 0 -- -- 79
2019-12-02 21:00:00 9.4 12 Este 29 Este 0 -- -- 79
2019-12-02 20:00:00 9.3 9 Nordeste 22 Nordeste 0 -- -- 82
2019-12-02 19:00:00 9.1 6 Este 22 Este 0 -- -- 82
2019-12-02 18:00:00 8.8 11 Este 23 Nordeste 0 -- -- 85
2019-12-02 17:00:00 9 8 Nordeste 17 Norte 0 -- -- 84
2019-12-02 16:00:00 8 4 Sudeste 23 Este 1.2 -- -- 84
2019-12-02 15:00:00 9.1 6 Sudeste 19 Sudeste 0 -- -- 78
2019-12-02 14:00:00 10 3 Este 11 Sur 0 -- -- 85
2019-12-02 13:00:00 8.8 0 Calma 5 Sudeste 0.2 -- -- 94
2019-12-02 12:00:00 8.4 0 Calma 3 Este 0.2 -- -- 93
2019-12-02 11:00:00 8 0 Calma 12 Sudeste 2 -- -- 94
2019-12-02 10:00:00 7.2 5 Este 15 Este 0.8 -- -- 91
2019-12-02 09:00:00 6.8 0 Calma 4 Sudoeste 0 -- -- 91
2019-12-02 08:00:00 7.4 0 Calma 6 Este 0 -- -- 89
2019-12-02 07:00:00 7.2 0 Calma 6 Sudoeste 0 -- -- 91
2019-12-02 06:00:00 6.9 2 Este 6 Este 0 -- -- 91
2019-12-02 05:00:00 6.4 0 Calma 3 Este 0 -- -- 92
2019-12-02 04:00:00 6.8 0 Calma 8 Sur 0 -- -- 92
2019-12-02 03:00:00 7.2 2 Sur 9 Sur 0 -- -- 92
2019-12-02 02:00:00 7.5 3 Sur 11 Sur 0.2 -- -- 91
2019-12-02 01:00:00 7.8 3 Sur 8 Sur 0.8 -- -- 94
2019-12-02 00:00:00 8 3 Sur 9 Sur 1 -- -- 93
2019-12-01 23:00:00 8.1 4 Sur 10 Sur 0.4 -- -- 92
2019-12-01 22:00:00 8.2 3 Sudoeste 10 Sudoeste 0.8 -- -- 94
2019-12-01 21:00:00 8.5 0 Calma 8 Oeste 0 -- -- 94
2019-12-01 20:00:00 8.5 0 Calma 8 Sur 0 -- -- 94
2019-12-01 19:00:00 8.9 3 Sudoeste 10 Sudoeste 1 -- -- 94
2019-12-01 18:00:00 9.3 2 Sudoeste 12 Norte 0.4 -- -- 94
2019-12-01 17:00:00 9.3 6 Sur 18 Sudoeste 0.8 -- -- 93
2019-12-01 16:00:00 9.9 5 Sur 21 Sudeste 0.4 -- -- 86
2019-12-01 15:00:00 11.7 6 Sur 22 Noroeste 0 -- -- 72
2019-12-01 14:00:00 12.7 7 Noroeste 31 Noroeste 0 -- -- 62
2019-12-01 13:00:00 13.3 9 Oeste 21 Noroeste 0 -- -- 62
2019-12-01 12:00:00 12.4 8 Noroeste 15 Noroeste 0 -- -- 65
2019-12-01 11:00:00 11 8 Noroeste 17 Oeste 0 -- -- 76
2019-12-01 10:00:00 9.9 8 Noroeste 17 Oeste 0 -- -- 76
2019-12-01 09:00:00 8.8 0 Calma 12 Noroeste 0 -- -- 81
2019-12-01 08:00:00 8.6 3 Noroeste 9 Noroeste 0 -- -- 83
2019-12-01 07:00:00 9 0 Calma 8 Oeste 0.2 -- -- 84
2019-12-01 06:00:00 9 2 Este 22 Oeste 0 -- -- 90
2019-12-01 05:00:00 9.2 6 Oeste 30 Noroeste 0 -- -- 94
2019-12-01 04:00:00 10 10 Oeste 33 Oeste 0 -- -- 94
2019-12-01 03:00:00 11.2 0 Calma 6 Sudeste 0 -- -- 90
2019-12-01 02:00:00 11.3 4 Oeste 10 Noroeste 0 -- -- 88
2019-12-01 01:00:00 11 0 Calma 8 Sudeste 0 -- -- 86
2019-12-01 00:00:00 10.1 3 Este 10 Este 0 -- -- 88
2019-11-30 23:00:00 10.5 3 Noroeste 14 Norte 0 -- -- 87
2019-11-30 22:00:00 9.9 2 Noroeste 11 Noroeste 0 -- -- 89
2019-11-30 21:00:00 10.7 2 Noroeste 12 Noroeste 0 -- -- 88
2019-11-30 20:00:00 11.3 3 Noroeste 16 Oeste 0 -- -- 85
2019-11-30 19:00:00 12.1 7 Noroeste 20 Oeste 0 -- -- 81
2019-11-30 18:00:00 13.3 11 Noroeste 22 Oeste 0 -- -- 77
2019-11-30 17:00:00 16.6 7 Noroeste 21 Noroeste 0 -- -- 63
2019-11-30 16:00:00 19 6 Noroeste 18 Norte 0 -- -- 43
2019-11-30 15:00:00 19.3 9 Noroeste 23 Oeste 0 -- -- 47
2019-11-30 14:00:00 19.8 8 Oeste 18 Noroeste 0 -- -- 40
2019-11-30 13:00:00 18.6 5 Oeste 10 Oeste 0 -- -- 50
2019-11-30 12:00:00 16.6 3 Oeste 12 Sudoeste 0 -- -- 49
2019-11-30 11:00:00 15.7 2 Sudoeste 6 Sudoeste 0 -- -- 44
2019-11-30 10:00:00 12.4 0 Calma 5 Este 0 -- -- 57
2019-11-30 09:00:00 9.8 0 Calma 8 Este 0 -- -- 61
2019-11-30 08:00:00 9.3 6 Sudeste 9 Sudeste 0 -- -- 60
2019-11-30 07:00:00 10 5 Este 8 Norte 0 -- -- 56
2019-11-30 06:00:00 9.9 0 Calma 8 Sudeste 0 -- -- 57
2019-11-30 05:00:00 10.4 5 Sudeste 8 Este 0 -- -- 50
2019-11-30 04:00:00 10.3 5 Este 7 Este 0 -- -- 52
2019-11-30 03:00:00 10.6 4 Este 6 Este 0 -- -- 55
2019-11-30 02:00:00 10 0 Calma 4 Este 0 -- -- 69
2019-11-30 01:00:00 10.1 0 Calma 5 Nordeste 0 -- -- 68
2019-11-30 00:00:00 10.4 4 Este 6 Este 0 -- -- 60
2019-11-29 23:00:00 10.5 2 Este 6 Este 0 -- -- 76
2019-11-29 22:00:00 10.6 4 Sudeste 6 Sudeste 0 -- -- 78
2019-11-29 21:00:00 11.2 4 Este 5 Este 0 -- -- 80
2019-11-29 20:00:00 11.9 2 Norte 4 Norte 0 -- -- 80
2019-11-29 19:00:00 13 4 Nordeste 15 Norte 0 -- -- 77
2019-11-29 18:00:00 15.2 7 Nordeste 13 Norte 0 -- -- 68
2019-11-29 17:00:00 17.8 4 Norte 11 Norte 0 -- -- 59
2019-11-29 16:00:00 18.2 6 Norte 10 Nordeste 0 -- -- 55
2019-11-29 15:00:00 18.4 0 Calma 8 Norte 0 -- -- 54
2019-11-29 14:00:00 17.6 2 Norte 9 Nordeste 0 -- -- 59
2019-11-29 13:00:00 16.2 4 Norte 9 Noroeste 0 -- -- 60
2019-11-29 12:00:00 14.3 3 Norte 9 Norte 0 -- -- 68
2019-11-29 11:00:00 12.9 0 Calma 6 Norte 0 -- -- 75
2019-11-29 10:00:00 9.8 0 Calma 5 Noroeste 0 -- -- 87
2019-11-29 09:00:00 7.6 2 Este 3 Sudeste 0 -- -- 90
2019-11-29 08:00:00 7.4 0 Calma 5 Este 0 -- -- 91
2019-11-29 07:00:00 8 0 Calma 8 Este 0 -- -- 91
2019-11-29 06:00:00 7.8 4 Sudeste 8 Sudeste 0 -- -- 88
2019-11-29 05:00:00 7.6 0 Calma 8 Este 0 -- -- 90
2019-11-29 04:00:00 8.1 0 Calma 3 Norte 0 -- -- 88
2019-11-29 03:00:00 8.3 0 Calma 4 Este 0 -- -- 87
2019-11-29 02:00:00 8.5 0 Calma 3 Este 0 -- -- 89
2019-11-29 01:00:00 8.3 0 Calma 4 Este 0 -- -- 90
2019-11-29 00:00:00 8.8 0 Calma 3 Este 0 -- -- 91
2019-11-28 23:00:00 9 0 Calma 6 Este 0 -- -- 91
2019-11-28 22:00:00 9.7 2 Este 5 Nordeste 0 -- -- 91
2019-11-28 21:00:00 10.3 4 Nordeste 8 Este 0 -- -- 90
2019-11-28 20:00:00 10.7 0 Calma 4 Nordeste 0 -- -- 86
2019-11-28 19:00:00 11.6 0 Calma 10 Norte 0 -- -- 82
2019-11-28 18:00:00 13.3 5 Norte 11 Norte 0 -- -- 76
2019-11-28 17:00:00 15.2 4 Norte 12 Noroeste 0 -- -- 67
2019-11-28 16:00:00 16.2 8 Noroeste 17 Noroeste 0 -- -- 63
2019-11-28 15:00:00 16.3 8 Noroeste 18 Noroeste 0 -- -- 62
2019-11-28 14:00:00 15.6 6 Noroeste 11 Noroeste 0 -- -- 63
2019-11-28 13:00:00 14.4 2 Norte 8 Norte 0 -- -- 66
2019-11-28 12:00:00 13.3 2 Nordeste 9 Noroeste 0 -- -- 71
2019-11-28 11:00:00 12.6 4 Norte 10 Norte 0 -- -- 75
2019-11-28 10:00:00 10.6 0 Calma 9 Norte 0 -- -- 85
2019-11-28 09:00:00 9.2 2 Este 9 Este 0 -- -- 90
2019-11-28 08:00:00 8.7 2 Este 7 Este 0 -- -- 94
2019-11-28 07:00:00 8.4 0 Calma 6 Nordeste 0 -- -- 95
2019-11-28 06:00:00 8.2 3 Este 6 Este 0 -- -- 96
2019-11-28 05:00:00 8.3 4 Este 6 Nordeste 0 -- -- 96
2019-11-28 04:00:00 8.6 3 Este 7 Este 0 -- -- 95
2019-11-28 03:00:00 8.9 3 Este 4 Este 0 -- -- 94
2019-11-28 02:00:00 9.2 0 Calma 5 Este 0 -- -- 93
2019-11-28 01:00:00 9.7 0 Calma 6 Noroeste 0 -- -- 92
2019-11-28 00:00:00 10.2 3 Noroeste 15 Oeste 0 -- -- 90
2019-11-27 23:00:00 10.7 5 Oeste 13 Noroeste 0 -- -- 89
2019-11-27 22:00:00 11.5 7 Oeste 20 Oeste 0 -- -- 85
2019-11-27 21:00:00 11.8 6 Oeste 14 Oeste 0 -- -- 90
2019-11-27 20:00:00 11.9 2 Oeste 13 Noroeste 0 -- -- 89
2019-11-27 19:00:00 12.1 3 Noroeste 12 Noroeste 0 -- -- 87
2019-11-27 18:00:00 12.8 9 Oeste 21 Noroeste 0 -- -- 82
2019-11-27 17:00:00 13.6 10 Noroeste 19 Noroeste 0 -- -- 77
2019-11-27 16:00:00 14.5 9 Noroeste 19 Oeste 0 -- -- 72
2019-11-27 15:00:00 14.7 9 Noroeste 23 Noroeste 0 -- -- 72
2019-11-27 14:00:00 14.9 8 Noroeste 22 Noroeste 0 -- -- 73
2019-11-27 06:00:00 -- -- -- -- -- -- -- -- --
2019-11-27 05:00:00 -- -- -- -- -- -- -- -- --
2019-11-27 04:00:00 -- -- -- -- -- -- -- -- --
2019-11-27 03:00:00 -- -- -- -- -- -- -- -- --
2019-11-27 02:00:00 -- -- -- -- -- -- -- -- --
2019-11-27 01:00:00 -- -- -- -- -- -- -- -- --
2019-11-27 00:00:00 -- -- -- -- -- -- -- -- --
2019-11-26 23:00:00 -- -- -- -- -- -- -- -- --
2019-11-26 22:00:00 -- -- -- -- -- -- -- -- --
2019-11-26 21:00:00 -- -- -- -- -- -- -- -- --
2019-11-26 20:00:00 -- -- -- -- -- -- -- -- --
2019-11-26 19:00:00 -- -- -- -- -- -- -- -- --
2019-11-26 18:00:00 -- -- -- -- -- -- -- -- --
2019-11-26 17:00:00 -- -- -- -- -- -- -- -- --
2019-11-26 16:00:00 -- -- -- -- -- -- -- -- --
2019-11-26 15:00:00 -- -- -- -- -- -- -- -- --
2019-11-26 14:00:00 16.4 -- -- 12 Norte 0 -- -- 83
2019-11-26 13:00:00 16.2 -- -- 6 Norte 0 -- -- 83
2019-11-26 12:00:00 15.5 -- -- 6 Norte 0 -- -- 85
2019-11-26 11:00:00 13.7 -- -- 9 Norte 0 -- -- 92
2019-11-26 10:00:00 12.3 -- -- -- -- -- -- -- 94
2019-11-26 09:00:00 -- -- -- -- -- -- -- -- --
2019-11-26 08:00:00 -- -- -- -- -- -- -- -- --
2019-11-26 07:00:00 -- -- -- -- -- -- -- -- --
2019-11-26 06:00:00 -- -- -- -- -- -- -- -- --
2019-11-26 05:00:00 -- -- -- -- -- -- -- -- --
2019-11-26 04:00:00 -- -- -- -- -- -- -- -- --
2019-11-26 03:00:00 -- -- -- -- -- -- -- -- --
2019-11-26 02:00:00 -- -- -- -- -- -- -- -- --
2019-11-26 01:00:00 -- -- -- -- -- -- -- -- --
2019-11-26 00:00:00 -- -- -- -- -- -- -- -- --
2019-11-25 23:00:00 -- -- -- -- -- -- -- -- --
2019-11-25 22:00:00 -- -- -- -- -- -- -- -- --
2019-11-25 21:00:00 -- -- -- -- -- -- -- -- --
2019-11-25 20:00:00 -- -- -- -- -- -- -- -- --
2019-11-25 19:00:00 -- -- -- -- -- -- -- -- --
2019-11-25 18:00:00 -- -- -- -- -- -- -- -- --
2019-11-25 17:00:00 -- -- -- -- -- -- -- -- --
2019-11-25 16:00:00 13.6 -- -- 10 Norte 0 -- -- 91
2019-11-25 15:00:00 -- -- -- -- -- -- -- -- --
2019-11-25 14:00:00 -- -- -- -- -- -- -- -- --
2019-11-25 13:00:00 -- -- -- -- -- -- -- -- --
2019-11-25 12:00:00 -- -- -- -- -- -- -- -- --
2019-11-25 11:00:00 -- -- -- -- -- -- -- -- --
2019-11-25 10:00:00 -- -- -- -- -- -- -- -- --
2019-11-25 09:00:00 -- -- -- -- -- -- -- -- --
2019-11-25 08:00:00 -- -- -- -- -- -- -- -- --
2019-11-25 07:00:00 -- -- -- -- -- -- -- -- --
2019-11-25 06:00:00 -- -- -- -- -- -- -- -- --
2019-11-25 05:00:00 -- -- -- -- -- -- -- -- --
2019-11-25 04:00:00 -- -- -- -- -- -- -- -- --
2019-11-25 03:00:00 -- -- -- -- -- -- -- -- --
2019-11-25 02:00:00 -- -- -- -- -- -- -- -- --
2019-11-25 01:00:00 -- -- -- -- -- -- -- -- --
2019-11-25 00:00:00 -- -- -- -- -- -- -- -- --
2019-11-24 23:00:00 -- -- -- -- -- -- -- -- --
2019-11-24 22:00:00 -- -- -- -- -- -- -- -- --
2019-11-24 21:00:00 -- -- -- -- -- -- -- -- --
2019-11-24 20:00:00 -- -- -- -- -- -- -- -- --
2019-11-24 19:00:00 -- -- -- -- -- -- -- -- --
2019-11-24 18:00:00 -- -- -- -- -- -- -- -- --
2019-11-24 17:00:00 -- -- -- -- -- -- -- -- --
2019-11-24 16:00:00 -- -- -- -- -- -- -- -- --
2019-11-24 15:00:00 -- -- -- -- -- -- -- -- --
2019-11-24 14:00:00 11.6 -- -- 21 Norte 0 -- -- 64
2019-11-24 13:00:00 11.3 -- -- 21 Norte 0 -- -- 65
2019-11-24 12:00:00 10.7 -- -- 10 Norte 0 -- -- 69
2019-11-24 11:00:00 9.1 -- -- 8 Norte 0 -- -- 74
2019-11-24 10:00:00 7.2 -- -- 5 Norte 0 -- -- 83
2019-11-24 09:00:00 5.2 -- -- -- -- -- -- -- 89
2019-11-24 08:00:00 -- -- -- -- -- -- -- -- --
2019-11-24 07:00:00 -- -- -- -- -- -- -- -- --
2019-11-24 06:00:00 -- -- -- -- -- -- -- -- --
2019-11-24 05:00:00 -- -- -- -- -- -- -- -- --
2019-11-24 04:00:00 -- -- -- -- -- -- -- -- --
2019-11-24 03:00:00 -- -- -- -- -- -- -- -- --
2019-11-24 02:00:00 -- -- -- -- -- -- -- -- --
2019-11-24 01:00:00 -- -- -- -- -- -- -- -- --
2019-11-24 00:00:00 -- -- -- -- -- -- -- -- --
2019-11-23 23:00:00 -- -- -- -- -- -- -- -- --
2019-11-23 22:00:00 -- -- -- -- -- -- -- -- --
2019-11-23 21:00:00 -- -- -- -- -- -- -- -- --
2019-11-23 20:00:00 -- -- -- -- -- -- -- -- --
2019-11-23 19:00:00 -- -- -- -- -- -- -- -- --
2019-11-23 18:00:00 -- -- -- -- -- -- -- -- --
2019-11-23 17:00:00 9.7 -- -- -- -- -- -- -- 75
2019-11-23 16:00:00 10.1 -- -- 41 Norte 0 -- -- 74
2019-11-23 15:00:00 10.1 -- -- 49 Norte 0 -- -- 75
2019-11-23 14:00:00 10.6 -- -- 43 Norte 0 -- -- 73
2019-11-23 13:00:00 9.2 -- -- 41 Norte 0 -- -- 78
2019-11-23 12:00:00 9.1 -- -- 47 Norte 0 -- -- 84
2019-11-23 11:00:00 8.4 -- -- 39 Norte 0 -- -- 85
2019-11-23 10:00:00 8 -- -- 46 Norte 0 -- -- 92
2019-11-23 09:00:00 7.4 -- -- -- -- -- -- -- 96
2019-11-23 08:00:00 -- -- -- -- -- -- -- -- --
2019-11-23 07:00:00 -- -- -- -- -- -- -- -- --
2019-11-23 06:00:00 -- -- -- -- -- -- -- -- --
2019-11-23 05:00:00 -- -- -- -- -- -- -- -- --
2019-11-23 04:00:00 -- -- -- -- -- -- -- -- --
2019-11-23 03:00:00 -- -- -- -- -- -- -- -- --
2019-11-23 02:00:00 -- -- -- -- -- -- -- -- --
2019-11-23 01:00:00 -- -- -- -- -- -- -- -- --
2019-11-23 00:00:00 -- -- -- -- -- -- -- -- --
2019-11-22 23:00:00 -- -- -- -- -- -- -- -- --
2019-11-22 22:00:00 -- -- -- -- -- -- -- -- --
2019-11-22 21:00:00 -- -- -- -- -- -- -- -- --
2019-11-22 20:00:00 -- -- -- -- -- -- -- -- --
2019-11-22 19:00:00 -- -- -- -- -- -- -- -- --
2019-11-22 18:00:00 -- -- -- -- -- -- -- -- --
2019-11-22 17:00:00 -- -- -- -- -- -- -- -- --
2019-11-22 16:00:00 13.7 -- -- 49 Norte 0.2 -- -- 85
2019-11-22 15:00:00 -- -- -- -- -- -- -- -- --
2019-11-22 14:00:00 -- -- -- -- -- -- -- -- --
2019-11-22 13:00:00 -- -- -- -- -- -- -- -- --
2019-11-22 12:00:00 -- -- -- -- -- -- -- -- --
2019-11-22 11:00:00 -- -- -- -- -- -- -- -- --
2019-11-22 10:00:00 -- -- -- -- -- -- -- -- --
2019-11-22 09:00:00 -- -- -- -- -- -- -- -- --
2019-11-22 08:00:00 -- -- -- -- -- -- -- -- --
2019-11-22 07:00:00 -- -- -- -- -- -- -- -- --
2019-11-22 06:00:00 -- -- -- -- -- -- -- -- --
2019-11-22 05:00:00 -- -- -- -- -- -- -- -- --
2019-11-22 04:00:00 -- -- -- -- -- -- -- -- --
2019-11-22 03:00:00 -- -- -- -- -- -- -- -- --
2019-11-22 02:00:00 -- -- -- -- -- -- -- -- --
2019-11-22 01:00:00 -- -- -- -- -- -- -- -- --
2019-11-22 00:00:00 -- -- -- -- -- -- -- -- --
2019-11-21 23:00:00 -- -- -- -- -- -- -- -- --
2019-11-21 22:00:00 -- -- -- -- -- -- -- -- --
2019-11-21 21:00:00 -- -- -- -- -- -- -- -- --
2019-11-21 20:00:00 -- -- -- -- -- -- -- -- --
2019-11-21 19:00:00 -- -- -- -- -- -- -- -- --
2019-11-21 18:00:00 -- -- -- -- -- -- -- -- --
2019-11-21 17:00:00 -- -- -- -- -- -- -- -- --
2019-11-21 16:00:00 -- -- -- -- -- -- -- -- --
2019-11-21 15:00:00 -- -- -- -- -- -- -- -- --
2019-11-21 14:00:00 -- -- -- -- -- -- -- -- --
2019-11-21 13:00:00 -- -- -- -- -- -- -- -- --
2019-11-21 12:00:00 -- -- -- -- -- -- -- -- --
2019-11-21 11:00:00 -- -- -- -- -- -- -- -- --
2019-11-21 10:00:00 -- -- -- -- -- -- -- -- --
2019-11-21 09:00:00 -- -- -- -- -- -- -- -- --
2019-11-21 08:00:00 -- -- -- -- -- -- -- -- --
2019-11-21 07:00:00 -- -- -- -- -- -- -- -- --
2019-11-21 06:00:00 -- -- -- -- -- -- -- -- --
2019-11-21 05:00:00 -- -- -- -- -- -- -- -- --
2019-11-21 04:00:00 -- -- -- -- -- -- -- -- --
2019-11-21 03:00:00 -- -- -- -- -- -- -- -- --
2019-11-21 02:00:00 -- -- -- -- -- -- -- -- --
2019-11-21 01:00:00 -- -- -- -- -- -- -- -- --
2019-11-21 00:00:00 -- -- -- -- -- -- -- -- --
2019-11-20 23:00:00 -- -- -- -- -- -- -- -- --
2019-11-20 22:00:00 -- -- -- -- -- -- -- -- --
2019-11-20 21:00:00 -- -- -- -- -- -- -- -- --
2019-11-20 20:00:00 -- -- -- -- -- -- -- -- --
2019-11-20 19:00:00 -- -- -- -- -- -- -- -- --
2019-11-20 18:00:00 -- -- -- -- -- -- -- -- --
2019-11-20 17:00:00 -- -- -- -- -- -- -- -- --
2019-11-20 16:00:00 -- -- -- -- -- -- -- -- --
2019-11-20 15:00:00 -- -- -- -- -- -- -- -- --
2019-11-20 14:00:00 -- -- -- -- -- -- -- -- --
2019-11-20 13:00:00 -- -- -- -- -- -- -- -- --
2019-11-20 12:00:00 -- -- -- -- -- -- -- -- --
2019-11-20 11:00:00 -- -- -- -- -- -- -- -- --
2019-11-20 10:00:00 -- -- -- -- -- -- -- -- --
2019-11-20 09:00:00 -- -- -- -- -- -- -- -- --
2019-11-20 08:00:00 -- -- -- -- -- -- -- -- --
2019-11-20 07:00:00 -- -- -- -- -- -- -- -- --
2019-11-20 06:00:00 -- -- -- -- -- -- -- -- --
2019-11-20 05:00:00 -- -- -- -- -- -- -- -- --
2019-11-20 04:00:00 -- -- -- -- -- -- -- -- --
2019-11-20 03:00:00 -- -- -- -- -- -- -- -- --
2019-11-20 02:00:00 -- -- -- -- -- -- -- -- --
2019-11-20 01:00:00 -- -- -- -- -- -- -- -- --
2019-11-20 00:00:00 -- -- -- -- -- -- -- -- --
2019-11-19 23:00:00 -- -- -- -- -- -- -- -- --
2019-11-19 22:00:00 -- -- -- -- -- -- -- -- --
2019-11-19 21:00:00 -- -- -- -- -- -- -- -- --
2019-11-19 20:00:00 -- -- -- -- -- -- -- -- --
2019-11-19 19:00:00 -- -- -- -- -- -- -- -- --
2019-11-19 18:00:00 -- -- -- -- -- -- -- -- --
2019-11-19 17:00:00 -- -- -- -- -- -- -- -- --
2019-11-19 16:00:00 -- -- -- -- -- -- -- -- --
2019-11-19 15:00:00 -- -- -- -- -- -- -- -- --
2019-11-19 14:00:00 12.2 -- -- 14 Norte 0 -- -- 55
2019-11-19 13:00:00 11.7 -- -- 7 Norte 0 -- -- 57
2019-11-19 12:00:00 10.2 -- -- 5 Norte 0 -- -- 61
2019-11-19 11:00:00 9.4 -- -- 5 Norte 0 -- -- 72
2019-11-19 10:00:00 6.5 -- -- 6 Norte 0 -- -- 76
2019-11-19 09:00:00 3.9 -- -- -- -- -- -- -- 85
2019-11-19 08:00:00 -- -- -- -- -- -- -- -- --
2019-11-19 07:00:00 -- -- -- -- -- -- -- -- --
2019-11-19 06:00:00 -- -- -- -- -- -- -- -- --
2019-11-19 05:00:00 -- -- -- -- -- -- -- -- --
2019-11-19 04:00:00 -- -- -- -- -- -- -- -- --
2019-11-19 03:00:00 -- -- -- -- -- -- -- -- --
2019-11-19 02:00:00 -- -- -- -- -- -- -- -- --
2019-11-19 01:00:00 -- -- -- -- -- -- -- -- --
2019-11-19 00:00:00 -- -- -- -- -- -- -- -- --
2019-11-18 23:00:00 -- -- -- -- -- -- -- -- --
2019-11-18 22:00:00 -- -- -- -- -- -- -- -- --
2019-11-18 21:00:00 -- -- -- -- -- -- -- -- --
2019-11-18 20:00:00 -- -- -- -- -- -- -- -- --
2019-11-18 19:00:00 -- -- -- -- -- -- -- -- --
2019-11-18 18:00:00 -- -- -- -- -- -- -- -- --
2019-11-18 17:00:00 10.7 -- -- 15 Norte 0 -- -- 64
2019-11-18 16:00:00 11.1 -- -- 19 Norte 0 -- -- 65
2019-11-18 15:00:00 10.4 -- -- 16 Norte 0 -- -- 67
2019-11-18 14:00:00 9.4 -- -- 14 Norte 0 -- -- 69
2019-11-18 13:00:00 8.4 -- -- 22 Norte 0 -- -- 76
2019-11-18 12:00:00 7.8 -- -- 16 Norte 0 -- -- 80
2019-11-18 11:00:00 5.6 -- -- -- -- -- -- -- 89
2019-11-18 10:00:00 5.3 -- -- -- -- -- -- -- 91
2019-11-18 09:00:00 -- -- -- -- -- -- -- -- --
2019-11-18 08:00:00 -- -- -- -- -- -- -- -- --
2019-11-18 07:00:00 -- -- -- -- -- -- -- -- --
2019-11-18 06:00:00 -- -- -- -- -- -- -- -- --
2019-11-18 05:00:00 -- -- -- -- -- -- -- -- --
2019-11-18 04:00:00 -- -- -- -- -- -- -- -- --
2019-11-18 03:00:00 -- -- -- -- -- -- -- -- --
2019-11-18 02:00:00 -- -- -- -- -- -- -- -- --
2019-11-18 01:00:00 -- -- -- -- -- -- -- -- --
2019-11-18 00:00:00 -- -- -- -- -- -- -- -- --
2019-11-17 23:00:00 -- -- -- -- -- -- -- -- --
2019-11-17 22:00:00 -- -- -- -- -- -- -- -- --
2019-11-17 21:00:00 -- -- -- -- -- -- -- -- --
2019-11-17 20:00:00 -- -- -- -- -- -- -- -- --
2019-11-17 19:00:00 -- -- -- -- -- -- -- -- --
2019-11-17 18:00:00 -- -- -- -- -- -- -- -- --
2019-11-17 17:00:00 -- -- -- -- -- -- -- -- --
2019-11-17 16:00:00 10.3 -- -- 28 Norte 0 -- -- 88
2019-11-17 15:00:00 -- -- -- -- -- -- -- -- --
2019-11-17 14:00:00 -- -- -- -- -- -- -- -- --
2019-11-17 13:00:00 -- -- -- -- -- -- -- -- --
2019-11-17 12:00:00 -- -- -- -- -- -- -- -- --
2019-11-17 11:00:00 -- -- -- -- -- -- -- -- --
2019-11-17 10:00:00 -- -- -- -- -- -- -- -- --
2019-11-17 09:00:00 -- -- -- -- -- -- -- -- --
2019-11-17 08:00:00 -- -- -- -- -- -- -- -- --
2019-11-17 07:00:00 -- -- -- -- -- -- -- -- --
2019-11-17 06:00:00 -- -- -- -- -- -- -- -- --
2019-11-17 05:00:00 -- -- -- -- -- -- -- -- --
2019-11-17 04:00:00 -- -- -- -- -- -- -- -- --
2019-11-17 03:00:00 -- -- -- -- -- -- -- -- --
2019-11-17 02:00:00 -- -- -- -- -- -- -- -- --
2019-11-17 01:00:00 -- -- -- -- -- -- -- -- --
2019-11-17 00:00:00 -- -- -- -- -- -- -- -- --
2019-11-16 23:00:00 -- -- -- -- -- -- -- -- --
2019-11-16 22:00:00 -- -- -- -- -- -- -- -- --
2019-11-16 21:00:00 -- -- -- -- -- -- -- -- --
2019-11-16 20:00:00 -- -- -- -- -- -- -- -- --
2019-11-16 19:00:00 -- -- -- -- -- -- -- -- --
2019-11-16 18:00:00 -- -- -- -- -- -- -- -- --
2019-11-16 17:00:00 -- -- -- -- -- -- -- -- --
2019-11-16 16:00:00 -- -- -- -- -- -- -- -- --
2019-11-16 15:00:00 -- -- -- -- -- -- -- -- --
2019-11-16 14:00:00 9.9 -- -- 22 Norte 0 -- -- 48
2019-11-16 13:00:00 9.4 -- -- 20 Norte 0 -- -- 52
2019-11-16 12:00:00 8.2 -- -- 13 Norte 0 -- -- 55
2019-11-16 11:00:00 6.7 -- -- 6 Norte 0 -- -- 61
2019-11-16 10:00:00 4.3 -- -- 5 Norte 0 -- -- 74
2019-11-16 09:00:00 1.3 -- -- -- -- -- -- -- 84
2019-11-16 08:00:00 -- -- -- -- -- -- -- -- --
2019-11-16 07:00:00 -- -- -- -- -- -- -- -- --
2019-11-16 06:00:00 -- -- -- -- -- -- -- -- --
2019-11-16 05:00:00 -- -- -- -- -- -- -- -- --
2019-11-16 04:00:00 -- -- -- -- -- -- -- -- --
2019-11-16 03:00:00 -- -- -- -- -- -- -- -- --
2019-11-16 02:00:00 -- -- -- -- -- -- -- -- --
2019-11-16 01:00:00 -- -- -- -- -- -- -- -- --
2019-11-16 00:00:00 -- -- -- -- -- -- -- -- --
2019-11-15 23:00:00 -- -- -- -- -- -- -- -- --
2019-11-15 22:00:00 -- -- -- -- -- -- -- -- --
2019-11-15 21:00:00 -- -- -- -- -- -- -- -- --
2019-11-15 20:00:00 -- -- -- -- -- -- -- -- --
2019-11-15 19:00:00 -- -- -- -- -- -- -- -- --
2019-11-15 18:00:00 -- -- -- -- -- -- -- -- --
2019-11-15 17:00:00 7.4 -- -- 28 Norte 0 -- -- 62
2019-11-15 16:00:00 7.1 -- -- 33 Norte 0 -- -- 58
2019-11-15 15:00:00 8 -- -- 34 Norte 0 -- -- 57
2019-11-15 14:00:00 7.9 -- -- 31 Norte 0 -- -- 55
2019-11-15 13:00:00 7.3 -- -- 30 Norte 0 -- -- 59
2019-11-15 12:00:00 6.9 -- -- 27 Norte 0 -- -- 63
2019-11-15 11:00:00 6.5 -- -- 25 Norte 0 -- -- 68
2019-11-15 10:00:00 5.3 -- -- 15 Norte 0 -- -- 80
2019-11-15 09:00:00 3.5 -- -- -- -- -- -- -- 87
2019-11-15 08:00:00 -- -- -- -- -- -- -- -- --
2019-11-15 07:00:00 -- -- -- -- -- -- -- -- --
2019-11-15 06:00:00 -- -- -- -- -- -- -- -- --
2019-11-15 05:00:00 -- -- -- -- -- -- -- -- --
2019-11-15 04:00:00 -- -- -- -- -- -- -- -- --
2019-11-15 03:00:00 -- -- -- -- -- -- -- -- --
2019-11-15 02:00:00 -- -- -- -- -- -- -- -- --
2019-11-15 01:00:00 -- -- -- -- -- -- -- -- --
2019-11-15 00:00:00 -- -- -- -- -- -- -- -- --
2019-11-14 23:00:00 -- -- -- -- -- -- -- -- --
2019-11-14 22:00:00 -- -- -- -- -- -- -- -- --
2019-11-14 21:00:00 -- -- -- -- -- -- -- -- --
2019-11-14 20:00:00 -- -- -- -- -- -- -- -- --
2019-11-14 19:00:00 -- -- -- -- -- -- -- -- --
2019-11-14 18:00:00 -- -- -- -- -- -- -- -- --
2019-11-14 17:00:00 7.1 -- -- 34 Norte 0 -- -- 89
2019-11-14 16:00:00 7.3 -- -- -- -- -- -- -- 95
2019-11-14 15:00:00 -- -- -- -- -- -- -- -- --
2019-11-14 14:00:00 8.1 -- -- -- -- -- -- -- 94
2019-11-14 13:00:00 9.5 -- -- 42 Norte 0 -- -- 89
2019-11-14 12:00:00 9.5 -- -- -- -- -- -- -- 87
2019-11-14 11:00:00 -- -- -- -- -- -- -- -- --
2019-11-14 10:00:00 -- -- -- -- -- -- -- -- --
2019-11-14 09:00:00 -- -- -- -- -- -- -- -- --
2019-11-14 08:00:00 -- -- -- -- -- -- -- -- --
2019-11-14 07:00:00 -- -- -- -- -- -- -- -- --
2019-11-14 06:00:00 -- -- -- -- -- -- -- -- --
2019-11-14 05:00:00 -- -- -- -- -- -- -- -- --
2019-11-14 04:00:00 -- -- -- -- -- -- -- -- --
2019-11-14 03:00:00 -- -- -- -- -- -- -- -- --
2019-11-14 02:00:00 -- -- -- -- -- -- -- -- --
2019-11-14 01:00:00 -- -- -- -- -- -- -- -- --
2019-11-14 00:00:00 -- -- -- -- -- -- -- -- --
2019-11-13 23:00:00 -- -- -- -- -- -- -- -- --
2019-11-13 22:00:00 -- -- -- -- -- -- -- -- --
2019-11-13 21:00:00 -- -- -- -- -- -- -- -- --
2019-11-13 20:00:00 -- -- -- -- -- -- -- -- --
2019-11-13 19:00:00 -- -- -- -- -- -- -- -- --
2019-11-13 18:00:00 -- -- -- -- -- -- -- -- --
2019-11-13 17:00:00 -- -- -- -- -- -- -- -- --
2019-11-13 16:00:00 -- -- -- -- -- -- -- -- --
2019-11-13 15:00:00 -- -- -- -- -- -- -- -- --
2019-11-13 14:00:00 13.7 -- -- 24 Norte 0 -- -- 84
2019-11-13 13:00:00 12.3 -- -- 19 Norte 0 -- -- 92
2019-11-13 12:00:00 11.1 -- -- 18 Norte 0 -- -- 96
2019-11-13 11:00:00 10.6 -- -- -- -- -- -- -- 95
2019-11-13 10:00:00 -- -- -- -- -- -- -- -- --
2019-11-13 09:00:00 -- -- -- -- -- -- -- -- --
2019-11-13 08:00:00 -- -- -- -- -- -- -- -- --
2019-11-13 07:00:00 -- -- -- -- -- -- -- -- --
2019-11-13 06:00:00 -- -- -- -- -- -- -- -- --
2019-11-13 05:00:00 -- -- -- -- -- -- -- -- --
2019-11-13 04:00:00 -- -- -- -- -- -- -- -- --
2019-11-13 03:00:00 -- -- -- -- -- -- -- -- --
2019-11-13 02:00:00 -- -- -- -- -- -- -- -- --
2019-11-13 01:00:00 -- -- -- -- -- -- -- -- --
2019-11-13 00:00:00 -- -- -- -- -- 0 -- -- --
2019-11-12 23:00:00 -- -- -- -- -- 0 -- -- --
2019-11-12 22:00:00 -- -- -- -- -- 0 -- -- --
2019-11-12 21:00:00 -- -- -- -- -- 0 -- -- --
2019-11-12 20:00:00 10.3 -- -- 12 Norte 0 -- -- 70
2019-11-12 19:00:00 10.7 -- -- -- -- -- -- -- 68
2019-11-12 18:00:00 -- -- -- -- -- -- -- -- --
2019-11-12 17:00:00 13.3 -- -- 24 Norte 0 -- -- 58
2019-11-12 16:00:00 14.1 -- -- 21 Norte 0 -- -- 61
2019-11-12 15:00:00 -- -- -- -- -- -- -- -- --
2019-11-12 14:00:00 14 -- -- 20 Norte 0 -- -- 69
2019-11-12 13:00:00 13.4 -- -- 20 Norte 0 -- -- 75
2019-11-12 12:00:00 13 -- -- 17 Norte 0 -- -- 74
2019-11-12 11:00:00 12.3 -- -- 11 Norte 0 -- -- 81
2019-11-12 10:00:00 11.5 -- -- 7 Norte 0 -- -- 87
2019-11-12 09:00:00 9.8 -- -- -- -- -- -- -- 94
2019-11-12 08:00:00 -- -- -- -- -- -- -- -- --
2019-11-12 07:00:00 -- -- -- -- -- -- -- -- --
2019-11-12 06:00:00 -- -- -- -- -- -- -- -- --
2019-11-12 05:00:00 -- -- -- -- -- -- -- -- --
2019-11-12 04:00:00 -- -- -- -- -- -- -- -- --
2019-11-12 03:00:00 -- -- -- -- -- -- -- -- --
2019-11-12 02:00:00 -- -- -- -- -- -- -- -- --
2019-11-12 01:00:00 -- -- -- -- -- -- -- -- --
2019-11-12 00:00:00 -- -- -- -- -- -- -- -- --
2019-11-11 23:00:00 -- -- -- -- -- -- -- -- --
2019-11-11 22:00:00 -- -- -- -- -- -- -- -- --
2019-11-11 21:00:00 -- -- -- -- -- -- -- -- --
2019-11-11 20:00:00 -- -- -- -- -- -- -- -- --
2019-11-11 19:00:00 -- -- -- -- -- -- -- -- --
2019-11-11 18:00:00 -- -- -- -- -- -- -- -- --
2019-11-11 17:00:00 -- -- -- -- -- -- -- -- --
2019-11-11 16:00:00 -- -- -- -- -- -- -- -- --
2019-11-11 15:00:00 -- -- -- -- -- -- -- -- --
2019-11-11 14:00:00 -- -- -- -- -- -- -- -- --
2019-11-11 13:00:00 -- -- -- -- -- -- -- -- --
2019-11-11 12:00:00 -- -- -- -- -- -- -- -- --
2019-11-11 11:00:00 -- -- -- -- -- -- -- -- --
2019-11-11 10:00:00 -- -- -- -- -- -- -- -- --
2019-11-11 09:00:00 -- -- -- -- -- -- -- -- --
2019-11-11 08:00:00 -- -- -- -- -- -- -- -- --
2019-11-11 07:00:00 -- -- -- -- -- -- -- -- --
2019-11-11 06:00:00 -- -- -- -- -- -- -- -- --
2019-11-11 05:00:00 -- -- -- -- -- -- -- -- --
2019-11-11 04:00:00 -- -- -- -- -- -- -- -- --
2019-11-11 03:00:00 -- -- -- -- -- -- -- -- --
2019-11-11 02:00:00 -- -- -- -- -- -- -- -- --
2019-11-11 01:00:00 -- -- -- -- -- -- -- -- --
2019-11-11 00:00:00 -- -- -- -- -- -- -- -- --
2019-11-10 23:00:00 -- -- -- -- -- -- -- -- --
2019-11-10 22:00:00 -- -- -- -- -- -- -- -- --
2019-11-10 21:00:00 -- -- -- -- -- -- -- -- --
2019-11-10 20:00:00 -- -- -- -- -- -- -- -- --
2019-11-10 19:00:00 -- -- -- -- -- -- -- -- --
2019-11-10 18:00:00 -- -- -- -- -- -- -- -- --
2019-11-10 17:00:00 -- -- -- -- -- -- -- -- --
2019-11-10 16:00:00 -- -- -- -- -- -- -- -- --
2019-11-10 15:00:00 -- -- -- -- -- -- -- -- --
2019-11-10 14:00:00 11.3 -- -- 35 Norte 0 -- -- 59
2019-11-10 13:00:00 10.8 -- -- 42 Norte 0 -- -- 61
2019-11-10 12:00:00 9.6 -- -- 33 Norte 0 -- -- 68
2019-11-10 11:00:00 8.7 -- -- 26 Norte 0 -- -- 80
2019-11-10 10:00:00 7.9 -- -- 29 Norte 0 -- -- 85
2019-11-10 09:00:00 7.1 -- -- -- -- 0 -- -- 88
2019-11-10 08:00:00 -- -- -- -- -- 0 -- -- --
2019-11-10 07:00:00 7.7 -- -- 19 Norte 0 -- -- 91
2019-11-10 06:00:00 8.6 -- -- 22 Norte 0 -- -- 92
2019-11-10 05:00:00 8.8 -- -- 27 Norte 0 -- -- 90
2019-11-10 04:00:00 9.7 -- -- 32 Norte 0 -- -- 95
2019-11-10 03:00:00 10.5 -- -- -- -- -- -- -- 95
2019-11-10 02:00:00 9.8 -- -- 12 Norte 0 -- -- 91
2019-11-10 01:00:00 9.9 -- -- 10 Norte 0 -- -- 85
2019-11-10 00:00:00 10 -- -- 13 Norte 0 -- -- 80
2019-11-09 23:00:00 10 -- -- -- -- -- -- -- 73
2019-11-09 22:00:00 9.7 -- -- 24 Norte 0 -- -- 71
2019-11-09 21:00:00 9.1 -- -- 12 Norte 0 -- -- 64
2019-11-09 20:00:00 8.8 -- -- 7 Norte 0 -- -- 64
2019-11-09 19:00:00 9.4 -- -- -- -- -- -- -- 58
2019-11-09 18:00:00 10.6 -- -- 17 Norte 0 -- -- 54
2019-11-09 17:00:00 12.9 -- -- 17 Norte 0 -- -- 47
2019-11-09 16:00:00 13.7 -- -- 20 Norte 0 -- -- 45
2019-11-09 15:00:00 -- -- -- -- -- -- -- -- --
2019-11-09 14:00:00 13.5 -- -- 13 Norte 0 -- -- 40
2019-11-09 13:00:00 12.7 -- -- 17 Norte 0 -- -- 43
2019-11-09 12:00:00 11.4 -- -- 10 Norte 0 -- -- 53
2019-11-09 11:00:00 10 -- -- 6 Norte 0 -- -- 56
2019-11-09 10:00:00 8.8 -- -- 8 Norte 0 -- -- 64
2019-11-09 09:00:00 5.2 -- -- -- -- -- -- -- 73
2019-11-09 08:00:00 -- -- -- -- -- -- -- -- --
2019-11-09 07:00:00 -- -- -- -- -- -- -- -- --
2019-11-09 06:00:00 -- -- -- -- -- -- -- -- --
2019-11-09 05:00:00 -- -- -- -- -- -- -- -- --
2019-11-09 04:00:00 -- -- -- -- -- -- -- -- --
2019-11-09 03:00:00 -- -- -- -- -- -- -- -- --
2019-11-09 02:00:00 -- -- -- -- -- -- -- -- --
2019-11-09 01:00:00 -- -- -- -- -- -- -- -- --
2019-11-09 00:00:00 -- -- -- -- -- -- -- -- --
2019-11-08 23:00:00 -- -- -- -- -- -- -- -- --
2019-11-08 22:00:00 -- -- -- -- -- -- -- -- --
2019-11-08 21:00:00 -- -- -- -- -- -- -- -- --
2019-11-08 20:00:00 -- -- -- -- -- -- -- -- --
2019-11-08 19:00:00 -- -- -- -- -- -- -- -- --
2019-11-08 18:00:00 10.1 -- -- 22 Norte 0 -- -- 57
2019-11-08 17:00:00 11.4 -- -- 23 Norte 0 -- -- 53
2019-11-08 16:00:00 10.6 -- -- 27 Norte 0 -- -- 56
2019-11-08 15:00:00 11.1 -- -- 32 Norte 0 -- -- 53
2019-11-08 14:00:00 10.9 -- -- 31 Norte 0 -- -- 58
2019-11-08 13:00:00 9.5 -- -- 31 Norte 0 -- -- 65
2019-11-08 12:00:00 8.7 -- -- 29 Norte 0 -- -- 74
2019-11-08 11:00:00 7.7 -- -- 26 Norte 0 -- -- 80
2019-11-08 10:00:00 7.3 -- -- 32 Norte 0 -- -- 84
2019-11-08 09:00:00 6.7 -- -- -- -- -- -- -- 85
2019-11-08 08:00:00 -- -- -- -- -- -- -- -- --
2019-11-08 07:00:00 -- -- -- -- -- -- -- -- --
2019-11-08 06:00:00 -- -- -- -- -- -- -- -- --
2019-11-08 05:00:00 -- -- -- -- -- -- -- -- --
2019-11-08 04:00:00 -- -- -- -- -- -- -- -- --
2019-11-08 03:00:00 -- -- -- -- -- -- -- -- --
2019-11-08 02:00:00 -- -- -- -- -- -- -- -- --
2019-11-08 01:00:00 -- -- -- -- -- -- -- -- --
2019-11-08 00:00:00 -- -- -- -- -- -- -- -- --